createdAt,value
2023-02-17T00:00:18.482Z,51.50
2023-02-17T00:03:40.091Z,52.50
2023-02-17T00:09:43.356Z,52.50
2023-02-17T00:12:45.584Z,51.50
2023-02-17T00:15:47.206Z,52.80
2023-02-17T00:21:56.889Z,50.70
2023-02-17T00:24:58.648Z,49.20
2023-02-17T00:28:00.382Z,48.60
2023-02-17T00:34:12.077Z,47.30
2023-02-17T00:37:14.126Z,49.00
2023-02-17T00:40:15.826Z,48.00
2023-02-17T00:46:19.256Z,48.70
2023-02-17T00:49:24.579Z,50.50
2023-02-17T00:52:26.229Z,48.80
2023-02-17T00:55:27.917Z,48.30
2023-02-17T00:58:29.602Z,48.90
2023-02-17T01:01:32.459Z,47.40
2023-02-17T01:04:34.384Z,48.80
2023-02-17T01:07:36.122Z,49.90
2023-02-17T01:10:38.861Z,50.40
2023-02-17T01:13:40.577Z,50.60
2023-02-17T01:19:46.119Z,50.50
2023-02-17T01:25:49.599Z,49.20
2023-02-17T01:28:52.457Z,48.50
2023-02-17T01:31:54.088Z,48.90
2023-02-17T01:34:55.704Z,46.80
2023-02-17T01:37:57.350Z,48.80
2023-02-17T01:40:59.250Z,48.80
2023-02-17T01:44:11.876Z,50.20
2023-02-17T01:47:16.594Z,47.20
2023-02-17T01:50:21.590Z,46.50
2023-02-17T01:53:28.406Z,50.30
2023-02-17T01:56:31.640Z,50.30
2023-02-17T01:59:33.342Z,48.60
2023-02-17T02:02:35.537Z,48.70
2023-02-17T02:05:38.650Z,48.60
2023-02-17T02:08:56.801Z,48.60
2023-02-17T02:11:58.613Z,48.40
2023-02-17T02:15:05.916Z,46.70
2023-02-17T02:18:39.576Z,46.90
2023-02-17T02:22:22.812Z,46.70
2023-02-17T02:25:39.874Z,47.00
2023-02-17T02:28:44.320Z,46.40
2023-02-17T02:32:34.565Z,45.80
2023-02-17T02:36:06.060Z,46.50
2023-02-17T02:39:11.688Z,47.70
2023-02-17T02:42:16.086Z,47.00
2023-02-17T02:45:19.055Z,46.20
2023-02-17T02:48:20.700Z,47.60
2023-02-17T02:54:42.505Z,47.20
2023-02-17T02:57:52.786Z,47.50
2023-02-17T03:01:21.019Z,50.20
2023-02-17T03:04:31.978Z,47.30
2023-02-17T03:07:40.768Z,47.80
2023-02-17T03:10:51.376Z,49.40
2023-02-17T03:13:53.180Z,49.70
2023-02-17T03:19:56.325Z,47.90
2023-02-17T03:22:58.162Z,51.30
2023-02-17T03:25:59.808Z,51.00
2023-02-17T03:29:01.399Z,53.40
2023-02-17T03:35:05.159Z,55.90
2023-02-17T03:38:06.864Z,55.20
2023-02-17T03:41:08.535Z,53.00
2023-02-17T03:47:11.856Z,50.80
2023-02-17T03:50:13.668Z,50.90
2023-02-17T03:56:18.260Z,49.70
2023-02-17T03:59:20.046Z,51.10
2023-02-17T04:05:24.475Z,50.60
2023-02-17T04:08:26.265Z,49.10
2023-02-17T04:14:29.581Z,49.10
2023-02-17T04:17:31.319Z,51.00
2023-02-17T04:23:36.343Z,49.70
2023-02-17T04:26:38.484Z,48.70
2023-02-17T04:32:41.873Z,51.00
2023-02-17T04:35:43.552Z,47.80
2023-02-17T04:41:47.232Z,49.10
2023-02-17T04:44:48.965Z,48.70
2023-02-17T04:47:51.001Z,48.40
2023-02-17T04:53:54.463Z,46.40
2023-02-17T04:59:57.569Z,47.50
2023-02-17T05:02:59.261Z,45.60
2023-02-17T05:06:01.563Z,45.70
2023-02-17T05:09:03.356Z,44.70
2023-02-17T05:15:07.424Z,45.40
2023-02-17T05:18:09.231Z,46.50
2023-02-17T05:24:12.616Z,50.40
2023-02-17T05:30:15.920Z,46.80
2023-02-17T05:36:19.105Z,47.70
2023-02-17T05:39:20.680Z,49.00
2023-02-17T05:42:22.486Z,49.50
2023-02-17T05:45:24.212Z,47.80
2023-02-17T05:48:25.876Z,47.70
2023-02-17T05:51:27.753Z,48.70
2023-02-17T05:57:31.591Z,47.80
2023-02-17T06:00:33.263Z,47.20
2023-02-17T06:06:36.428Z,48.20
2023-02-17T06:09:38.010Z,50.70
2023-02-17T06:12:39.808Z,51.10
2023-02-17T06:18:42.868Z,48.40
2023-02-17T06:21:44.476Z,48.60
2023-02-17T06:24:46.112Z,45.70
2023-02-17T06:27:47.669Z,49.50
2023-02-17T06:30:49.546Z,51.20
2023-02-17T06:36:52.696Z,49.20
2023-02-17T06:39:54.353Z,49.00
2023-02-17T06:42:55.908Z,47.50
2023-02-17T06:45:57.503Z,45.40
2023-02-17T06:48:59.174Z,46.40
2023-02-17T06:55:02.413Z,47.30
2023-02-17T07:01:05.917Z,47.50
2023-02-17T07:07:10.676Z,46.40
2023-02-17T07:10:12.380Z,47.70
2023-02-17T07:16:16.209Z,44.60
2023-02-17T07:19:18.029Z,47.50
2023-02-17T07:22:19.935Z,48.20
2023-02-17T07:25:21.749Z,46.30
2023-02-17T07:31:25.035Z,45.10
2023-02-17T07:37:28.373Z,44.30
2023-02-17T07:43:31.902Z,44.00
2023-02-17T07:49:35.227Z,43.70
2023-02-17T07:52:37.291Z,43.80
2023-02-17T07:58:41.976Z,41.90
2023-02-17T08:01:43.823Z,42.40
2023-02-17T08:04:45.561Z,42.60
2023-02-17T08:10:48.764Z,39.90
2023-02-17T08:16:52.763Z,42.70
2023-02-17T08:19:55.271Z,42.80
2023-02-17T08:22:57.028Z,42.60
2023-02-17T08:25:58.919Z,42.60
2023-02-17T08:32:02.299Z,42.70
2023-02-17T08:35:04.223Z,41.80
2023-02-17T08:38:05.822Z,41.60
2023-02-17T08:41:13.681Z,44.00
2023-02-17T08:44:17.447Z,40.50
2023-02-17T08:47:37.531Z,41.70
2023-02-17T08:53:40.776Z,39.80
2023-02-17T08:59:44.176Z,39.70
2023-02-17T09:02:45.934Z,40.40
2023-02-17T09:05:49.942Z,41.40
2023-02-17T09:08:52.292Z,38.50
2023-02-17T09:11:56.204Z,39.60
2023-02-17T09:14:57.877Z,35.40
2023-02-17T09:17:59.491Z,33.70
2023-02-17T09:21:09.447Z,32.00
2023-02-17T09:24:11.178Z,32.50
2023-02-17T09:27:13.024Z,34.10
2023-02-17T09:30:14.900Z,36.60
2023-02-17T09:33:16.564Z,36.70
2023-02-17T09:36:21.191Z,34.10
2023-02-17T09:39:22.850Z,32.40
2023-02-17T09:42:26.218Z,32.40
2023-02-17T09:45:32.859Z,32.40
2023-02-17T09:48:35.309Z,32.20
2023-02-17T09:51:45.824Z,35.30
2023-02-17T09:54:58.664Z,35.30
2023-02-17T09:58:03.935Z,34.10
2023-02-17T10:01:14.189Z,34.00
2023-02-17T10:04:20.935Z,38.00
2023-02-17T10:07:33.239Z,36.00
2023-02-17T10:10:40.293Z,37.00
2023-02-17T10:13:43.143Z,34.40
2023-02-17T10:16:55.063Z,36.90
2023-02-17T10:20:18.382Z,40.10
2023-02-17T10:23:23.440Z,40.80
2023-02-17T10:26:40.272Z,38.40
2023-02-17T10:29:57.339Z,33.30
2023-02-17T10:33:14.246Z,25.20
2023-02-17T10:36:26.466Z,19.70
2023-02-17T10:40:00.670Z,18.00
2023-02-17T10:43:07.314Z,18.00
2023-02-17T10:46:09.923Z,17.90
2023-02-17T10:49:19.164Z,17.40
2023-02-17T10:52:24.577Z,17.90
2023-02-17T10:55:31.832Z,17.00
2023-02-17T10:58:38.953Z,17.60
2023-02-17T11:01:41.399Z,17.20
2023-02-17T11:04:45.380Z,16.10
2023-02-17T11:07:47.395Z,15.20
2023-02-17T11:11:02.903Z,14.90
2023-02-17T11:14:12.845Z,14.90
2023-02-17T11:17:38.172Z,14.50
2023-02-17T11:20:39.717Z,14.40
2023-02-17T11:24:04.243Z,15.10
2023-02-17T11:27:10.474Z,14.40
2023-02-17T11:30:16.259Z,14.50
2023-02-17T11:33:24.209Z,13.40
2023-02-17T11:36:30.578Z,13.60
2023-02-17T11:39:41.384Z,14.60
2023-02-17T11:42:42.935Z,13.00
2023-02-17T11:49:28.696Z,13.20
2023-02-17T11:52:49.140Z,13.50
2023-02-17T11:56:02.442Z,13.20
2023-02-17T11:59:17.621Z,12.70
2023-02-17T12:02:38.161Z,13.00
2023-02-17T12:05:49.011Z,12.60
2023-02-17T12:09:06.443Z,13.50
2023-02-17T12:12:16.941Z,13.80
2023-02-17T12:15:37.589Z,12.30
2023-02-17T12:18:50.091Z,11.60
2023-02-17T12:22:20.694Z,12.10
2023-02-17T12:25:26.381Z,12.40
2023-02-17T12:29:02.545Z,11.70
2023-02-17T12:32:23.132Z,11.80
2023-02-17T12:36:10.795Z,11.00
2023-02-17T12:39:20.018Z,11.90
2023-02-17T12:42:27.394Z,11.50
2023-02-17T12:45:44.620Z,12.10
2023-02-17T12:48:54.277Z,10.60
2023-02-17T12:52:00.035Z,11.20
2023-02-17T12:55:21.917Z,11.10
2023-02-17T12:58:29.136Z,10.80
2023-02-17T13:01:32.353Z,11.10
2023-02-17T13:04:34.863Z,11.00
2023-02-17T13:07:53.962Z,10.40
2023-02-17T13:11:08.299Z,10.00
2023-02-17T13:14:12.304Z,10.10
2023-02-17T13:17:26.122Z,10.40
2023-02-17T13:20:52.247Z,10.10
2023-02-17T13:24:06.122Z,10.40
2023-02-17T13:27:24.644Z,9.90
2023-02-17T13:30:40.881Z,9.20
2023-02-17T13:33:56.765Z,9.20
2023-02-17T13:37:01.173Z,9.00
2023-02-17T13:40:23.779Z,9.20
2023-02-17T13:43:25.789Z,9.50
2023-02-17T13:46:27.728Z,8.60
2023-02-17T13:49:32.223Z,8.50
2023-02-17T13:52:33.865Z,8.70
2023-02-17T13:55:35.655Z,8.50
2023-02-17T13:58:39.783Z,9.50
2023-02-17T14:01:42.917Z,9.10
2023-02-17T14:04:44.585Z,8.10
2023-02-17T14:07:47.640Z,8.40
2023-02-17T14:10:49.535Z,8.10
2023-02-17T14:13:52.859Z,8.70
2023-02-17T14:17:12.922Z,8.20
2023-02-17T14:20:29.925Z,8.40
2023-02-17T14:23:46.998Z,9.10
2023-02-17T14:26:49.220Z,8.80
2023-02-17T14:29:50.844Z,8.50
2023-02-17T14:33:05.302Z,8.40
2023-02-17T14:36:07.597Z,8.40
2023-02-17T14:39:14.523Z,8.20
2023-02-17T14:42:16.217Z,8.70
2023-02-17T14:45:19.290Z,8.60
2023-02-17T14:48:21.090Z,8.50
2023-02-17T14:51:25.706Z,8.30
2023-02-17T14:54:30.354Z,8.60
2023-02-17T14:57:32.133Z,8.30
2023-02-17T15:00:33.783Z,8.80
2023-02-17T15:03:35.423Z,8.60
2023-02-17T15:09:44.529Z,8.80
2023-02-17T15:12:46.837Z,8.30
2023-02-17T15:15:48.632Z,8.90
2023-02-17T15:18:50.172Z,9.10
2023-02-17T15:21:52.253Z,9.30
2023-02-17T15:24:53.856Z,9.30
2023-02-17T15:30:57.014Z,8.40
2023-02-17T15:37:01.484Z,9.20
2023-02-17T15:40:03.075Z,10.00
2023-02-17T15:43:04.984Z,9.80
2023-02-17T15:46:13.639Z,9.60
2023-02-17T15:49:15.366Z,9.30
2023-02-17T15:52:17.056Z,10.70
2023-02-17T15:55:19.823Z,11.00
2023-02-17T15:58:22.657Z,9.30
2023-02-17T16:01:30.184Z,9.20
2023-02-17T16:04:31.848Z,8.80
2023-02-17T16:07:34.203Z,9.10
2023-02-17T16:10:36.888Z,8.20
2023-02-17T16:13:40.118Z,8.20
2023-02-17T16:16:41.779Z,8.40
2023-02-17T16:19:43.859Z,8.30
2023-02-17T16:22:46.061Z,7.50
2023-02-17T16:25:48.705Z,8.40
2023-02-17T16:28:50.362Z,8.40
2023-02-17T16:34:53.687Z,7.70
2023-02-17T16:41:14.694Z,7.00
2023-02-17T16:44:17.880Z,7.70
2023-02-17T16:47:21.730Z,6.70
2023-02-17T16:50:30.539Z,8.00
2023-02-17T16:53:32.198Z,6.70
2023-02-17T16:59:38.937Z,7.00
2023-02-17T17:08:44.170Z,8.00
2023-02-17T17:11:45.896Z,8.80
2023-02-17T17:14:47.783Z,9.80
2023-02-17T17:17:49.284Z,9.20
2023-02-17T17:20:50.851Z,9.10
2023-02-17T17:23:52.593Z,8.70
2023-02-17T17:26:54.443Z,8.30
2023-02-17T17:29:55.987Z,8.20
2023-02-17T17:35:59.186Z,8.50
2023-02-17T17:42:02.791Z,7.70
2023-02-17T17:48:06.141Z,8.60
2023-02-17T17:51:08.986Z,7.80
2023-02-17T17:54:10.595Z,7.60
2023-02-17T17:57:12.616Z,8.20
2023-02-17T18:00:16.107Z,7.70
2023-02-17T18:03:17.758Z,10.30
2023-02-17T18:09:37.386Z,8.50
2023-02-17T18:12:39.876Z,8.20
2023-02-17T18:15:41.953Z,7.90
2023-02-17T18:18:43.648Z,8.00
2023-02-17T18:21:45.758Z,7.70
2023-02-17T18:24:47.516Z,7.90
2023-02-17T18:27:49.054Z,7.00
2023-02-17T18:33:53.277Z,6.70
2023-02-17T18:36:54.971Z,7.50
2023-02-17T18:45:59.813Z,7.70
2023-02-17T18:49:01.520Z,8.00
2023-02-17T18:58:06.903Z,6.70
2023-02-17T19:01:21.748Z,7.40
2023-02-17T19:04:23.730Z,6.70
2023-02-17T19:07:25.760Z,7.20
2023-02-17T19:10:27.511Z,7.90
2023-02-17T19:13:29.314Z,7.60
2023-02-17T19:16:31.913Z,7.60
2023-02-17T19:19:36.709Z,7.40
2023-02-17T19:22:38.705Z,7.70
2023-02-17T19:25:40.269Z,7.90
2023-02-17T19:31:43.665Z,8.20
2023-02-17T19:34:45.413Z,7.80
2023-02-17T19:40:48.685Z,8.50
2023-02-17T19:43:50.797Z,8.20
2023-02-17T19:46:52.444Z,8.20
2023-02-17T19:49:54.090Z,8.10
2023-02-17T19:52:55.784Z,9.10
2023-02-17T19:56:12.751Z,8.60
2023-02-17T19:59:14.689Z,8.70
2023-02-17T20:02:16.481Z,8.90
2023-02-17T20:05:18.147Z,9.00
2023-02-17T20:08:19.791Z,9.80
2023-02-17T20:14:23.261Z,10.90
2023-02-17T20:17:24.862Z,11.10
2023-02-17T20:20:26.450Z,10.50
2023-02-17T20:26:32.644Z,11.50
2023-02-17T20:29:34.370Z,11.70
2023-02-17T20:32:35.966Z,12.10
2023-02-17T20:35:37.841Z,12.00
2023-02-17T20:38:40.474Z,11.40
2023-02-17T20:41:42.040Z,11.70
2023-02-17T20:47:45.321Z,11.40
2023-02-17T20:50:46.928Z,11.80
2023-02-17T20:56:50.361Z,12.80
2023-02-17T20:59:52.158Z,11.50
2023-02-17T21:02:54.424Z,11.10
2023-02-17T21:05:56.098Z,11.70
2023-02-17T21:12:00.196Z,12.00
2023-02-17T21:15:01.770Z,12.10
2023-02-17T21:21:05.068Z,12.20
2023-02-17T21:24:06.821Z,11.90
2023-02-17T21:27:08.426Z,11.00
2023-02-17T21:30:12.008Z,10.90
2023-02-17T21:33:13.774Z,10.60
2023-02-17T21:36:17.568Z,10.70
2023-02-17T21:39:19.118Z,10.70
2023-02-17T21:45:22.915Z,9.50
2023-02-17T21:48:24.546Z,9.40
2023-02-17T21:54:27.615Z,10.00
2023-02-17T22:00:30.820Z,9.40
2023-02-17T22:06:37.694Z,9.70
2023-02-17T22:09:39.258Z,9.60
2023-02-17T22:15:42.327Z,9.10
2023-02-17T22:21:46.175Z,9.70
2023-02-17T22:24:47.790Z,10.10
2023-02-17T22:27:49.373Z,10.30
2023-02-17T22:30:54.110Z,10.20
2023-02-17T22:33:57.521Z,9.20
2023-02-17T22:36:59.244Z,9.90
2023-02-17T22:40:00.932Z,8.50
2023-02-17T22:43:02.637Z,9.80
2023-02-17T22:46:04.827Z,9.70
2023-02-17T22:49:06.484Z,10.60
2023-02-17T22:52:08.510Z,9.80
2023-02-17T22:55:10.047Z,9.70
2023-02-17T23:01:15.761Z,10.20
2023-02-17T23:04:17.710Z,9.60
2023-02-17T23:07:19.336Z,10.20
2023-02-17T23:10:21.034Z,8.10
2023-02-17T23:16:24.310Z,7.20
2023-02-17T23:19:26.314Z,7.00
2023-02-17T23:22:28.216Z,6.70
2023-02-17T23:25:29.980Z,6.50
2023-02-17T23:28:31.940Z,6.30
2023-02-17T23:31:33.869Z,6.00
2023-02-17T23:34:35.701Z,5.60
2023-02-17T23:37:37.434Z,5.70
2023-02-17T23:40:39.749Z,5.60
2023-02-17T23:43:41.356Z,5.50
2023-02-17T23:46:44.567Z,6.30
2023-02-17T23:49:46.149Z,6.00
2023-02-17T23:52:47.845Z,5.70
2023-02-17T23:55:49.420Z,5.70
2023-02-17T23:58:51.582Z,6.30
